sensor_id;sensor_type;location;lat;lon;timestamp;P1;durP1;ratioP1;P2;durP2;ratioP2
40959;SDS011;27842;52.272;8.052;2023-03-21T00:01:54;25.17;;;10.10;;
40959;SDS011;27842;52.272;8.052;2023-03-21T00:04:20;24.30;;;10.82;;
40959;SDS011;27842;52.272;8.052;2023-03-21T00:06:50;24.02;;;10.50;;
40959;SDS011;27842;52.272;8.052;2023-03-21T00:09:16;23.10;;;10.45;;
40959;SDS011;27842;52.272;8.052;2023-03-21T00:11:42;20.58;;;9.52;;
40959;SDS011;27842;52.272;8.052;2023-03-21T00:14:07;22.63;;;10.40;;
40959;SDS011;27842;52.272;8.052;2023-03-21T00:16:38;24.92;;;10.50;;
40959;SDS011;27842;52.272;8.052;2023-03-21T00:19:04;22.95;;;10.48;;
40959;SDS011;27842;52.272;8.052;2023-03-21T00:21:31;27.00;;;10.88;;
40959;SDS011;27842;52.272;8.052;2023-03-21T00:24:02;27.52;;;11.52;;
40959;SDS011;27842;52.272;8.052;2023-03-21T00:26:29;22.60;;;11.05;;
40959;SDS011;27842;52.272;8.052;2023-03-21T00:28:55;27.17;;;11.27;;
40959;SDS011;27842;52.272;8.052;2023-03-21T00:31:21;23.83;;;10.88;;
40959;SDS011;27842;52.272;8.052;2023-03-21T00:33:46;24.10;;;10.07;;
40959;SDS011;27842;52.272;8.052;2023-03-21T00:36:12;23.00;;;11.07;;
40959;SDS011;27842;52.272;8.052;2023-03-21T00:38:38;25.63;;;11.05;;
40959;SDS011;27842;52.272;8.052;2023-03-21T00:41:04;24.13;;;10.77;;
40959;SDS011;27842;52.272;8.052;2023-03-21T00:43:30;25.52;;;12.32;;
40959;SDS011;27842;52.272;8.052;2023-03-21T00:45:56;30.52;;;12.13;;
40959;SDS011;27842;52.272;8.052;2023-03-21T00:48:23;28.10;;;11.48;;
40959;SDS011;27842;52.272;8.052;2023-03-21T00:50:49;25.92;;;10.75;;
40959;SDS011;27842;52.272;8.052;2023-03-21T00:53:16;23.90;;;10.82;;
40959;SDS011;27842;52.272;8.052;2023-03-21T00:55:42;27.38;;;10.70;;
40959;SDS011;27842;52.272;8.052;2023-03-21T00:58:07;27.20;;;11.15;;
40959;SDS011;27842;52.272;8.052;2023-03-21T01:00:33;25.08;;;11.18;;
40959;SDS011;27842;52.272;8.052;2023-03-21T01:03:01;25.67;;;11.70;;
40959;SDS011;27842;52.272;8.052;2023-03-21T01:05:32;27.65;;;11.32;;
40959;SDS011;27842;52.272;8.052;2023-03-21T01:08:21;24.00;;;11.10;;
40959;SDS011;27842;52.272;8.052;2023-03-21T01:10:48;25.00;;;10.50;;
40959;SDS011;27842;52.272;8.052;2023-03-21T01:13:15;25.52;;;10.98;;
40959;SDS011;27842;52.272;8.052;2023-03-21T01:15:44;27.27;;;12.63;;
40959;SDS011;27842;52.272;8.052;2023-03-21T01:18:12;27.45;;;12.02;;
40959;SDS011;27842;52.272;8.052;2023-03-21T01:20:39;25.63;;;10.93;;
40959;SDS011;27842;52.272;8.052;2023-03-21T01:23:05;26.23;;;11.75;;
40959;SDS011;27842;52.272;8.052;2023-03-21T01:25:31;23.33;;;11.25;;
40959;SDS011;27842;52.272;8.052;2023-03-21T01:27:57;30.70;;;11.85;;
40959;SDS011;27842;52.272;8.052;2023-03-21T01:30:23;26.38;;;12.20;;
40959;SDS011;27842;52.272;8.052;2023-03-21T01:32:48;26.30;;;11.35;;
40959;SDS011;27842;52.272;8.052;2023-03-21T01:35:14;27.63;;;11.95;;
40959;SDS011;27842;52.272;8.052;2023-03-21T01:37:40;25.92;;;11.13;;
40959;SDS011;27842;52.272;8.052;2023-03-21T01:40:05;27.77;;;11.38;;
40959;SDS011;27842;52.272;8.052;2023-03-21T01:42:37;25.10;;;12.63;;
40959;SDS011;27842;52.272;8.052;2023-03-21T01:45:04;28.83;;;12.18;;
40959;SDS011;27842;52.272;8.052;2023-03-21T01:47:50;28.75;;;12.65;;
40959;SDS011;27842;52.272;8.052;2023-03-21T01:50:16;27.33;;;12.38;;
40959;SDS011;27842;52.272;8.052;2023-03-21T01:52:46;27.88;;;12.40;;
40959;SDS011;27842;52.272;8.052;2023-03-21T01:55:15;24.55;;;11.68;;
40959;SDS011;27842;52.272;8.052;2023-03-21T01:57:46;25.45;;;11.70;;
40959;SDS011;27842;52.272;8.052;2023-03-21T02:00:16;25.27;;;11.80;;
40959;SDS011;27842;52.272;8.052;2023-03-21T02:02:44;26.88;;;12.00;;
40959;SDS011;27842;52.272;8.052;2023-03-21T02:05:22;28.33;;;11.77;;
40959;SDS011;27842;52.272;8.052;2023-03-21T02:07:54;31.10;;;12.55;;
40959;SDS011;27842;52.272;8.052;2023-03-21T02:10:20;26.13;;;11.90;;
40959;SDS011;27842;52.272;8.052;2023-03-21T02:12:46;30.02;;;12.35;;
40959;SDS011;27842;52.272;8.052;2023-03-21T02:15:12;25.73;;;11.55;;
40959;SDS011;27842;52.272;8.052;2023-03-21T02:23:23;27.67;;;13.23;;
40959;SDS011;27842;52.272;8.052;2023-03-21T02:28:53;30.80;;;12.30;;
40959;SDS011;27842;52.272;8.052;2023-03-21T02:47:28;24.55;;;12.80;;
40959;SDS011;27842;52.272;8.052;2023-03-21T02:52:42;26.98;;;12.68;;
40959;SDS011;27842;52.272;8.052;2023-03-21T02:57:43;27.88;;;13.77;;
40959;SDS011;27842;52.272;8.052;2023-03-21T03:00:11;29.70;;;13.80;;
40959;SDS011;27842;52.272;8.052;2023-03-21T03:02:45;28.52;;;14.38;;
40959;SDS011;27842;52.272;8.052;2023-03-21T03:05:18;28.05;;;14.50;;
40959;SDS011;27842;52.272;8.052;2023-03-21T03:13:26;31.42;;;16.50;;
40959;SDS011;27842;52.272;8.052;2023-03-21T03:18:40;34.08;;;16.70;;
40959;SDS011;27842;52.272;8.052;2023-03-21T03:24:01;33.85;;;18.10;;
40959;SDS011;27842;52.272;8.052;2023-03-21T03:29:11;32.95;;;19.27;;
40959;SDS011;27842;52.272;8.052;2023-03-21T03:31:42;34.10;;;19.35;;
40959;SDS011;27842;52.272;8.052;2023-03-21T03:34:22;34.75;;;19.15;;
40959;SDS011;27842;52.272;8.052;2023-03-21T03:36:54;35.85;;;20.30;;
40959;SDS011;27842;52.272;8.052;2023-03-21T03:39:24;37.97;;;20.70;;
40959;SDS011;27842;52.272;8.052;2023-03-21T03:41:58;37.70;;;21.17;;
40959;SDS011;27842;52.272;8.052;2023-03-21T03:44:30;38.90;;;21.50;;
40959;SDS011;27842;52.272;8.052;2023-03-21T03:52:09;40.70;;;21.40;;
40959;SDS011;27842;52.272;8.052;2023-03-21T03:54:42;38.08;;;22.17;;
40959;SDS011;27842;52.272;8.052;2023-03-21T03:57:09;40.08;;;23.17;;
40959;SDS011;27842;52.272;8.052;2023-03-21T03:59:37;37.35;;;21.98;;
40959;SDS011;27842;52.272;8.052;2023-03-21T04:02:05;34.70;;;21.25;;
40959;SDS011;27842;52.272;8.052;2023-03-21T04:04:31;33.90;;;20.75;;
40959;SDS011;27842;52.272;8.052;2023-03-21T04:06:57;41.60;;;23.58;;
40959;SDS011;27842;52.272;8.052;2023-03-21T04:09:23;39.33;;;23.90;;
40959;SDS011;27842;52.272;8.052;2023-03-21T04:11:50;42.42;;;22.40;;
40959;SDS011;27842;52.272;8.052;2023-03-21T04:14:15;37.72;;;22.50;;
40959;SDS011;27842;52.272;8.052;2023-03-21T04:16:41;40.10;;;22.00;;
40959;SDS011;27842;52.272;8.052;2023-03-21T04:19:07;39.33;;;22.65;;
40959;SDS011;27842;52.272;8.052;2023-03-21T04:21:33;36.25;;;22.58;;
40959;SDS011;27842;52.272;8.052;2023-03-21T04:23:58;41.90;;;22.08;;
40959;SDS011;27842;52.272;8.052;2023-03-21T04:26:24;38.83;;;24.15;;
40959;SDS011;27842;52.272;8.052;2023-03-21T04:28:55;37.65;;;23.00;;
40959;SDS011;27842;52.272;8.052;2023-03-21T04:31:20;41.20;;;24.08;;
40959;SDS011;27842;52.272;8.052;2023-03-21T04:36:15;41.53;;;23.70;;
40959;SDS011;27842;52.272;8.052;2023-03-21T04:38:49;44.03;;;24.75;;
40959;SDS011;27842;52.272;8.052;2023-03-21T04:41:15;40.63;;;24.02;;
40959;SDS011;27842;52.272;8.052;2023-03-21T04:43:40;39.03;;;24.00;;
40959;SDS011;27842;52.272;8.052;2023-03-21T04:46:06;40.45;;;22.60;;
40959;SDS011;27842;52.272;8.052;2023-03-21T04:48:32;38.38;;;22.92;;
40959;SDS011;27842;52.272;8.052;2023-03-21T04:50:57;39.67;;;24.13;;
40959;SDS011;27842;52.272;8.052;2023-03-21T04:53:23;45.53;;;24.02;;
40959;SDS011;27842;52.272;8.052;2023-03-21T04:55:48;37.22;;;21.95;;
40959;SDS011;27842;52.272;8.052;2023-03-21T04:58:15;37.40;;;22.83;;
40959;SDS011;27842;52.272;8.052;2023-03-21T05:00:40;37.22;;;22.25;;
40959;SDS011;27842;52.272;8.052;2023-03-21T05:03:07;37.25;;;22.40;;
40959;SDS011;27842;52.272;8.052;2023-03-21T05:05:36;38.05;;;23.58;;
40959;SDS011;27842;52.272;8.052;2023-03-21T05:08:02;37.60;;;23.85;;
40959;SDS011;27842;52.272;8.052;2023-03-21T05:10:29;40.17;;;24.85;;
40959;SDS011;27842;52.272;8.052;2023-03-21T05:12:54;41.13;;;25.20;;
40959;SDS011;27842;52.272;8.052;2023-03-21T05:15:20;46.03;;;26.70;;
40959;SDS011;27842;52.272;8.052;2023-03-21T05:17:46;44.25;;;26.50;;
40959;SDS011;27842;52.272;8.052;2023-03-21T05:20:12;46.47;;;27.95;;
40959;SDS011;27842;52.272;8.052;2023-03-21T05:22:39;48.80;;;29.23;;
40959;SDS011;27842;52.272;8.052;2023-03-21T05:25:08;45.05;;;27.27;;
40959;SDS011;27842;52.272;8.052;2023-03-21T05:27:35;49.25;;;29.00;;
40959;SDS011;27842;52.272;8.052;2023-03-21T05:30:02;50.60;;;27.27;;
40959;SDS011;27842;52.272;8.052;2023-03-21T05:32:33;49.90;;;28.20;;
40959;SDS011;27842;52.272;8.052;2023-03-21T05:34:59;45.58;;;26.08;;
40959;SDS011;27842;52.272;8.052;2023-03-21T05:37:25;44.90;;;27.25;;
40959;SDS011;27842;52.272;8.052;2023-03-21T05:39:51;42.53;;;25.40;;
40959;SDS011;27842;52.272;8.052;2023-03-21T05:42:17;42.38;;;24.92;;
40959;SDS011;27842;52.272;8.052;2023-03-21T05:44:43;43.78;;;24.38;;
40959;SDS011;27842;52.272;8.052;2023-03-21T05:47:10;40.05;;;24.15;;
40959;SDS011;27842;52.272;8.052;2023-03-21T05:49:36;41.92;;;24.85;;
40959;SDS011;27842;52.272;8.052;2023-03-21T05:52:02;39.40;;;24.35;;
40959;SDS011;27842;52.272;8.052;2023-03-21T05:54:28;41.05;;;23.52;;
40959;SDS011;27842;52.272;8.052;2023-03-21T05:56:54;41.20;;;23.30;;
40959;SDS011;27842;52.272;8.052;2023-03-21T05:59:19;42.63;;;23.85;;
40959;SDS011;27842;52.272;8.052;2023-03-21T06:01:45;41.63;;;22.75;;
40959;SDS011;27842;52.272;8.052;2023-03-21T06:04:11;44.42;;;23.63;;
40959;SDS011;27842;52.272;8.052;2023-03-21T06:06:36;37.40;;;21.40;;
40959;SDS011;27842;52.272;8.052;2023-03-21T06:09:02;37.22;;;20.70;;
40959;SDS011;27842;52.272;8.052;2023-03-21T06:11:28;38.90;;;20.45;;
40959;SDS011;27842;52.272;8.052;2023-03-21T06:13:56;39.38;;;21.38;;
40959;SDS011;27842;52.272;8.052;2023-03-21T06:16:22;35.55;;;19.10;;
40959;SDS011;27842;52.272;8.052;2023-03-21T06:18:47;36.05;;;20.27;;
40959;SDS011;27842;52.272;8.052;2023-03-21T06:21:13;37.97;;;18.20;;
40959;SDS011;27842;52.272;8.052;2023-03-21T06:23:39;37.95;;;19.55;;
40959;SDS011;27842;52.272;8.052;2023-03-21T06:26:04;35.28;;;18.85;;
40959;SDS011;27842;52.272;8.052;2023-03-21T06:28:30;37.90;;;18.23;;
40959;SDS011;27842;52.272;8.052;2023-03-21T06:30:56;32.95;;;17.70;;
40959;SDS011;27842;52.272;8.052;2023-03-21T06:33:22;35.22;;;17.23;;
40959;SDS011;27842;52.272;8.052;2023-03-21T06:35:51;34.35;;;17.98;;
40959;SDS011;27842;52.272;8.052;2023-03-21T06:38:18;36.53;;;17.70;;
40959;SDS011;27842;52.272;8.052;2023-03-21T06:40:47;34.25;;;16.75;;
40959;SDS011;27842;52.272;8.052;2023-03-21T06:43:13;36.78;;;17.02;;
40959;SDS011;27842;52.272;8.052;2023-03-21T06:45:40;32.15;;;17.17;;
40959;SDS011;27842;52.272;8.052;2023-03-21T06:48:06;37.33;;;17.67;;
40959;SDS011;27842;52.272;8.052;2023-03-21T06:50:31;35.85;;;17.23;;
40959;SDS011;27842;52.272;8.052;2023-03-21T06:52:57;34.95;;;16.98;;
40959;SDS011;27842;52.272;8.052;2023-03-21T06:55:23;31.80;;;16.65;;
40959;SDS011;27842;52.272;8.052;2023-03-21T06:57:54;34.00;;;15.90;;
40959;SDS011;27842;52.272;8.052;2023-03-21T07:00:21;34.50;;;17.20;;
40959;SDS011;27842;52.272;8.052;2023-03-21T07:02:48;35.72;;;16.63;;
40959;SDS011;27842;52.272;8.052;2023-03-21T07:05:15;33.22;;;17.00;;
40959;SDS011;27842;52.272;8.052;2023-03-21T07:07:41;35.08;;;16.38;;
40959;SDS011;27842;52.272;8.052;2023-03-21T07:10:07;33.97;;;17.60;;
40959;SDS011;27842;52.272;8.052;2023-03-21T07:12:33;33.42;;;16.02;;
40959;SDS011;27842;52.272;8.052;2023-03-21T07:15:03;35.78;;;16.02;;
40959;SDS011;27842;52.272;8.052;2023-03-21T07:17:31;34.47;;;15.68;;
40959;SDS011;27842;52.272;8.052;2023-03-21T07:19:57;33.58;;;16.17;;
40959;SDS011;27842;52.272;8.052;2023-03-21T07:22:23;33.65;;;15.98;;
40959;SDS011;27842;52.272;8.052;2023-03-21T07:24:49;31.52;;;16.25;;
40959;SDS011;27842;52.272;8.052;2023-03-21T07:27:15;33.05;;;16.38;;
40959;SDS011;27842;52.272;8.052;2023-03-21T07:29:42;30.17;;;14.77;;
40959;SDS011;27842;52.272;8.052;2023-03-21T07:32:08;30.30;;;16.15;;
40959;SDS011;27842;52.272;8.052;2023-03-21T07:34:35;29.13;;;15.65;;
40959;SDS011;27842;52.272;8.052;2023-03-21T07:37:02;30.85;;;16.42;;
40959;SDS011;27842;52.272;8.052;2023-03-21T07:39:28;31.92;;;16.75;;
40959;SDS011;27842;52.272;8.052;2023-03-21T07:41:54;30.65;;;16.98;;
40959;SDS011;27842;52.272;8.052;2023-03-21T07:44:20;31.42;;;17.60;;
40959;SDS011;27842;52.272;8.052;2023-03-21T07:46:46;34.63;;;18.50;;
40959;SDS011;27842;52.272;8.052;2023-03-21T07:49:12;30.98;;;17.48;;
40959;SDS011;27842;52.272;8.052;2023-03-21T07:51:38;34.63;;;17.60;;
40959;SDS011;27842;52.272;8.052;2023-03-21T07:54:03;30.98;;;16.98;;
40959;SDS011;27842;52.272;8.052;2023-03-21T07:56:30;30.60;;;16.92;;
40959;SDS011;27842;52.272;8.052;2023-03-21T07:58:56;33.83;;;17.98;;
40959;SDS011;27842;52.272;8.052;2023-03-21T08:01:23;30.77;;;17.42;;
40959;SDS011;27842;52.272;8.052;2023-03-21T08:03:49;30.02;;;16.98;;
40959;SDS011;27842;52.272;8.052;2023-03-21T08:06:15;30.33;;;16.83;;
40959;SDS011;27842;52.272;8.052;2023-03-21T08:08:40;29.15;;;17.25;;
40959;SDS011;27842;52.272;8.052;2023-03-21T08:11:06;28.77;;;17.30;;
40959;SDS011;27842;52.272;8.052;2023-03-21T08:13:32;27.85;;;15.63;;
40959;SDS011;27842;52.272;8.052;2023-03-21T08:15:57;31.40;;;18.08;;
40959;SDS011;27842;52.272;8.052;2023-03-21T08:18:23;32.25;;;16.38;;
40959;SDS011;27842;52.272;8.052;2023-03-21T08:20:52;26.33;;;15.07;;
40959;SDS011;27842;52.272;8.052;2023-03-21T08:23:19;29.35;;;15.73;;
40959;SDS011;27842;52.272;8.052;2023-03-21T08:25:45;28.83;;;15.15;;
40959;SDS011;27842;52.272;8.052;2023-03-21T08:28:15;29.95;;;15.73;;
40959;SDS011;27842;52.272;8.052;2023-03-21T08:30:40;30.75;;;15.95;;
40959;SDS011;27842;52.272;8.052;2023-03-21T08:33:06;25.55;;;14.77;;
40959;SDS011;27842;52.272;8.052;2023-03-21T08:35:31;30.42;;;16.35;;
40959;SDS011;27842;52.272;8.052;2023-03-21T08:37:57;29.73;;;15.70;;
40959;SDS011;27842;52.272;8.052;2023-03-21T08:40:23;29.30;;;14.40;;
40959;SDS011;27842;52.272;8.052;2023-03-21T08:42:48;28.30;;;15.35;;
40959;SDS011;27842;52.272;8.052;2023-03-21T08:45:15;29.08;;;15.82;;
40959;SDS011;27842;52.272;8.052;2023-03-21T08:47:41;28.40;;;15.55;;
40959;SDS011;27842;52.272;8.052;2023-03-21T08:50:08;26.55;;;14.65;;
40959;SDS011;27842;52.272;8.052;2023-03-21T08:52:37;28.92;;;14.93;;
40959;SDS011;27842;52.272;8.052;2023-03-21T08:55:03;25.55;;;14.30;;
40959;SDS011;27842;52.272;8.052;2023-03-21T08:57:29;27.58;;;14.63;;
40959;SDS011;27842;52.272;8.052;2023-03-21T08:59:54;24.75;;;13.98;;
40959;SDS011;27842;52.272;8.052;2023-03-21T09:02:20;28.38;;;14.70;;
40959;SDS011;27842;52.272;8.052;2023-03-21T09:04:46;28.48;;;13.95;;
40959;SDS011;27842;52.272;8.052;2023-03-21T09:07:11;25.23;;;13.82;;
40959;SDS011;27842;52.272;8.052;2023-03-21T09:09:38;26.40;;;13.88;;
40959;SDS011;27842;52.272;8.052;2023-03-21T09:12:05;26.05;;;14.27;;
40959;SDS011;27842;52.272;8.052;2023-03-21T09:14:31;27.08;;;14.85;;
40959;SDS011;27842;52.272;8.052;2023-03-21T09:16:58;24.92;;;14.40;;
40959;SDS011;27842;52.272;8.052;2023-03-21T09:19:24;30.33;;;15.55;;
40959;SDS011;27842;52.272;8.052;2023-03-21T09:21:50;28.48;;;15.18;;
40959;SDS011;27842;52.272;8.052;2023-03-21T09:24:18;26.63;;;15.40;;
40959;SDS011;27842;52.272;8.052;2023-03-21T09:26:44;30.38;;;17.08;;
40959;SDS011;27842;52.272;8.052;2023-03-21T09:29:10;28.13;;;15.23;;
40959;SDS011;27842;52.272;8.052;2023-03-21T09:31:36;27.10;;;15.38;;
40959;SDS011;27842;52.272;8.052;2023-03-21T09:34:04;28.27;;;15.82;;
40959;SDS011;27842;52.272;8.052;2023-03-21T09:36:29;29.60;;;15.88;;
40959;SDS011;27842;52.272;8.052;2023-03-21T09:38:56;29.00;;;15.57;;
40959;SDS011;27842;52.272;8.052;2023-03-21T09:45:39;26.17;;;15.40;;
40959;SDS011;27842;52.272;8.052;2023-03-21T09:47:51;28.40;;;15.73;;
40959;SDS011;27842;52.272;8.052;2023-03-21T09:50:21;28.25;;;14.48;;
40959;SDS011;27842;52.272;8.052;2023-03-21T09:53:14;28.75;;;13.77;;
40959;SDS011;27842;52.272;8.052;2023-03-21T09:55:50;28.67;;;13.70;;
40959;SDS011;27842;52.272;8.052;2023-03-21T09:58:25;27.10;;;14.63;;
40959;SDS011;27842;52.272;8.052;2023-03-21T10:01:13;26.48;;;14.23;;
40959;SDS011;27842;52.272;8.052;2023-03-21T10:03:57;25.75;;;13.48;;
40959;SDS011;27842;52.272;8.052;2023-03-21T10:06:25;27.77;;;13.90;;
40959;SDS011;27842;52.272;8.052;2023-03-21T10:08:59;23.90;;;13.50;;
40959;SDS011;27842;52.272;8.052;2023-03-21T10:11:33;23.40;;;13.40;;
40959;SDS011;27842;52.272;8.052;2023-03-21T10:14:48;26.58;;;13.60;;
40959;SDS011;27842;52.272;8.052;2023-03-21T10:20:09;26.17;;;14.30;;
40959;SDS011;27842;52.272;8.052;2023-03-21T10:22:49;24.05;;;13.35;;
40959;SDS011;27842;52.272;8.052;2023-03-21T10:25:18;24.13;;;13.10;;
40959;SDS011;27842;52.272;8.052;2023-03-21T10:27:46;26.95;;;13.63;;
40959;SDS011;27842;52.272;8.052;2023-03-21T10:32:58;27.42;;;12.68;;
40959;SDS011;27842;52.272;8.052;2023-03-21T10:35:29;29.00;;;14.82;;
40959;SDS011;27842;52.272;8.052;2023-03-21T10:37:58;31.02;;;17.50;;
40959;SDS011;27842;52.272;8.052;2023-03-21T10:40:25;25.20;;;14.25;;
40959;SDS011;27842;52.272;8.052;2023-03-21T10:42:53;26.83;;;13.80;;
40959;SDS011;27842;52.272;8.052;2023-03-21T10:45:40;27.55;;;14.35;;
40959;SDS011;27842;52.272;8.052;2023-03-21T10:48:08;26.13;;;13.77;;
40959;SDS011;27842;52.272;8.052;2023-03-21T10:53:00;25.73;;;11.80;;
40959;SDS011;27842;52.272;8.052;2023-03-21T10:55:30;23.58;;;11.55;;
40959;SDS011;27842;52.272;8.052;2023-03-21T10:57:58;24.92;;;12.45;;
40959;SDS011;27842;52.272;8.052;2023-03-21T11:00:36;26.42;;;12.70;;
40959;SDS011;27842;52.272;8.052;2023-03-21T11:03:03;26.08;;;13.32;;
40959;SDS011;27842;52.272;8.052;2023-03-21T11:05:37;26.17;;;14.10;;
40959;SDS011;27842;52.272;8.052;2023-03-21T11:08:07;24.75;;;13.35;;
40959;SDS011;27842;52.272;8.052;2023-03-21T11:16:22;23.67;;;13.10;;
40959;SDS011;27842;52.272;8.052;2023-03-21T11:18:51;25.05;;;13.80;;
40959;SDS011;27842;52.272;8.052;2023-03-21T11:21:24;24.00;;;13.55;;
40959;SDS011;27842;52.272;8.052;2023-03-21T11:23:52;23.65;;;13.63;;
40959;SDS011;27842;52.272;8.052;2023-03-21T11:26:21;25.85;;;13.60;;
40959;SDS011;27842;52.272;8.052;2023-03-21T11:28:51;24.63;;;13.68;;
40959;SDS011;27842;52.272;8.052;2023-03-21T11:31:18;25.65;;;13.82;;
40959;SDS011;27842;52.272;8.052;2023-03-21T11:33:51;25.80;;;14.45;;
40959;SDS011;27842;52.272;8.052;2023-03-21T11:38:57;29.48;;;16.13;;
40959;SDS011;27842;52.272;8.052;2023-03-21T11:41:46;31.75;;;17.38;;
40959;SDS011;27842;52.272;8.052;2023-03-21T11:44:39;29.77;;;16.92;;
40959;SDS011;27842;52.272;8.052;2023-03-21T11:47:17;25.77;;;13.85;;
40959;SDS011;27842;52.272;8.052;2023-03-21T11:50:33;23.83;;;13.35;;
40959;SDS011;27842;52.272;8.052;2023-03-21T12:04:37;24.63;;;13.38;;
40959;SDS011;27842;52.272;8.052;2023-03-21T12:07:15;24.77;;;12.90;;
40959;SDS011;27842;52.272;8.052;2023-03-21T12:15:48;22.90;;;12.20;;
40959;SDS011;27842;52.272;8.052;2023-03-21T12:21:46;23.58;;;12.05;;
40959;SDS011;27842;52.272;8.052;2023-03-21T12:24:23;23.42;;;12.10;;
40959;SDS011;27842;52.272;8.052;2023-03-21T12:27:34;24.85;;;12.23;;
40959;SDS011;27842;52.272;8.052;2023-03-21T12:35:50;22.73;;;12.25;;
40959;SDS011;27842;52.272;8.052;2023-03-21T12:38:34;25.92;;;12.73;;
40959;SDS011;27842;52.272;8.052;2023-03-21T12:46:23;27.23;;;13.98;;
40959;SDS011;27842;52.272;8.052;2023-03-21T12:51:32;21.40;;;12.95;;
40959;SDS011;27842;52.272;8.052;2023-03-21T13:02:28;23.83;;;14.32;;
40959;SDS011;27842;52.272;8.052;2023-03-21T13:07:30;22.35;;;13.30;;
40959;SDS011;27842;52.272;8.052;2023-03-21T13:10:00;23.92;;;14.40;;
40959;SDS011;27842;52.272;8.052;2023-03-21T13:15:16;24.13;;;13.32;;
40959;SDS011;27842;52.272;8.052;2023-03-21T13:17:51;24.70;;;14.60;;
40959;SDS011;27842;52.272;8.052;2023-03-21T13:20:21;25.52;;;14.35;;
40959;SDS011;27842;52.272;8.052;2023-03-21T13:22:59;23.33;;;13.45;;
40959;SDS011;27842;52.272;8.052;2023-03-21T13:25:25;24.90;;;13.38;;
40959;SDS011;27842;52.272;8.052;2023-03-21T13:28:00;22.70;;;13.18;;
40959;SDS011;27842;52.272;8.052;2023-03-21T13:30:29;21.50;;;12.77;;
40959;SDS011;27842;52.272;8.052;2023-03-21T13:33:10;26.67;;;12.70;;
40959;SDS011;27842;52.272;8.052;2023-03-21T13:35:41;24.77;;;13.07;;
40959;SDS011;27842;52.272;8.052;2023-03-21T13:38:16;23.40;;;12.18;;
40959;SDS011;27842;52.272;8.052;2023-03-21T13:41:29;22.95;;;11.85;;
40959;SDS011;27842;52.272;8.052;2023-03-21T13:46:09;24.13;;;11.65;;
40959;SDS011;27842;52.272;8.052;2023-03-21T13:48:41;22.48;;;10.35;;
40959;SDS011;27842;52.272;8.052;2023-03-21T13:56:53;18.73;;;9.45;;
40959;SDS011;27842;52.272;8.052;2023-03-21T13:59:34;20.38;;;8.05;;
40959;SDS011;27842;52.272;8.052;2023-03-21T14:02:11;19.42;;;9.25;;
40959;SDS011;27842;52.272;8.052;2023-03-21T14:04:52;17.10;;;7.60;;
40959;SDS011;27842;52.272;8.052;2023-03-21T14:07:31;20.92;;;7.38;;
40959;SDS011;27842;52.272;8.052;2023-03-21T14:13:17;19.48;;;7.05;;
40959;SDS011;27842;52.272;8.052;2023-03-21T14:21:28;15.77;;;5.75;;
40959;SDS011;27842;52.272;8.052;2023-03-21T14:23:59;19.38;;;6.55;;
40959;SDS011;27842;52.272;8.052;2023-03-21T14:26:28;15.80;;;6.00;;
40959;SDS011;27842;52.272;8.052;2023-03-21T14:28:56;17.63;;;6.13;;
40959;SDS011;27842;52.272;8.052;2023-03-21T14:31:23;17.75;;;6.40;;
40959;SDS011;27842;52.272;8.052;2023-03-21T14:33:51;16.30;;;5.88;;
40959;SDS011;27842;52.272;8.052;2023-03-21T14:36:23;18.92;;;6.10;;
40959;SDS011;27842;52.272;8.052;2023-03-21T14:41:31;17.70;;;5.78;;
40959;SDS011;27842;52.272;8.052;2023-03-21T14:46:49;16.35;;;6.82;;
40959;SDS011;27842;52.272;8.052;2023-03-21T14:51:52;21.05;;;9.18;;
40959;SDS011;27842;52.272;8.052;2023-03-21T14:54:21;16.73;;;5.63;;
40959;SDS011;27842;52.272;8.052;2023-03-21T14:56:52;16.42;;;5.95;;
40959;SDS011;27842;52.272;8.052;2023-03-21T14:59:22;14.75;;;6.03;;
40959;SDS011;27842;52.272;8.052;2023-03-21T15:01:50;17.33;;;5.90;;
40959;SDS011;27842;52.272;8.052;2023-03-21T15:04:18;18.02;;;6.13;;
40959;SDS011;27842;52.272;8.052;2023-03-21T15:06:55;16.40;;;5.47;;
40959;SDS011;27842;52.272;8.052;2023-03-21T15:09:27;14.85;;;5.35;;
40959;SDS011;27842;52.272;8.052;2023-03-21T15:11:55;18.63;;;6.32;;
40959;SDS011;27842;52.272;8.052;2023-03-21T15:14:25;13.48;;;5.00;;
40959;SDS011;27842;52.272;8.052;2023-03-21T15:16:54;21.02;;;7.10;;
40959;SDS011;27842;52.272;8.052;2023-03-21T15:19:27;16.98;;;6.00;;
40959;SDS011;27842;52.272;8.052;2023-03-21T15:21:57;17.65;;;5.97;;
40959;SDS011;27842;52.272;8.052;2023-03-21T15:24:32;17.05;;;5.47;;
40959;SDS011;27842;52.272;8.052;2023-03-21T15:27:04;15.23;;;5.22;;
40959;SDS011;27842;52.272;8.052;2023-03-21T15:32:02;14.27;;;4.85;;
40959;SDS011;27842;52.272;8.052;2023-03-21T15:34:30;14.95;;;5.25;;
40959;SDS011;27842;52.272;8.052;2023-03-21T15:36:57;15.48;;;4.90;;
40959;SDS011;27842;52.272;8.052;2023-03-21T15:39:29;14.32;;;4.70;;
40959;SDS011;27842;52.272;8.052;2023-03-21T15:42:05;14.50;;;4.50;;
40959;SDS011;27842;52.272;8.052;2023-03-21T15:44:50;13.52;;;5.30;;
40959;SDS011;27842;52.272;8.052;2023-03-21T15:47:39;15.52;;;4.68;;
40959;SDS011;27842;52.272;8.052;2023-03-21T15:50:09;15.17;;;4.73;;
40959;SDS011;27842;52.272;8.052;2023-03-21T15:52:45;15.93;;;4.82;;
40959;SDS011;27842;52.272;8.052;2023-03-21T15:55:26;14.05;;;4.38;;
40959;SDS011;27842;52.272;8.052;2023-03-21T15:58:15;13.43;;;4.13;;
40959;SDS011;27842;52.272;8.052;2023-03-21T16:00:46;11.73;;;4.30;;
40959;SDS011;27842;52.272;8.052;2023-03-21T16:06:02;13.30;;;4.18;;
40959;SDS011;27842;52.272;8.052;2023-03-21T16:08:52;14.68;;;4.15;;
40959;SDS011;27842;52.272;8.052;2023-03-21T16:11:41;15.00;;;4.53;;
40959;SDS011;27842;52.272;8.052;2023-03-21T16:14:12;12.27;;;4.03;;
40959;SDS011;27842;52.272;8.052;2023-03-21T16:16:38;13.75;;;4.40;;
40959;SDS011;27842;52.272;8.052;2023-03-21T16:19:04;14.50;;;4.80;;
40959;SDS011;27842;52.272;8.052;2023-03-21T16:21:33;11.75;;;3.97;;
40959;SDS011;27842;52.272;8.052;2023-03-21T16:24:02;16.55;;;4.25;;
40959;SDS011;27842;52.272;8.052;2023-03-21T16:26:30;12.57;;;4.20;;
40959;SDS011;27842;52.272;8.052;2023-03-21T16:29:01;13.23;;;4.28;;
40959;SDS011;27842;52.272;8.052;2023-03-21T16:31:27;17.15;;;4.90;;
40959;SDS011;27842;52.272;8.052;2023-03-21T16:33:55;13.52;;;3.90;;
40959;SDS011;27842;52.272;8.052;2023-03-21T16:36:25;12.00;;;4.30;;
40959;SDS011;27842;52.272;8.052;2023-03-21T16:38:53;10.43;;;4.05;;
40959;SDS011;27842;52.272;8.052;2023-03-21T16:41:23;12.15;;;3.78;;
40959;SDS011;27842;52.272;8.052;2023-03-21T16:43:50;13.07;;;4.22;;
40959;SDS011;27842;52.272;8.052;2023-03-21T16:46:18;11.80;;;3.95;;
40959;SDS011;27842;52.272;8.052;2023-03-21T16:48:47;12.88;;;4.22;;
40959;SDS011;27842;52.272;8.052;2023-03-21T16:51:15;11.77;;;4.18;;
40959;SDS011;27842;52.272;8.052;2023-03-21T16:53:46;15.02;;;4.50;;
40959;SDS011;27842;52.272;8.052;2023-03-21T16:56:14;15.18;;;5.70;;
40959;SDS011;27842;52.272;8.052;2023-03-21T16:58:52;12.82;;;4.40;;
40959;SDS011;27842;52.272;8.052;2023-03-21T17:01:19;16.05;;;4.78;;
40959;SDS011;27842;52.272;8.052;2023-03-21T17:03:46;15.13;;;4.85;;
40959;SDS011;27842;52.272;8.052;2023-03-21T17:06:13;15.45;;;4.85;;
40959;SDS011;27842;52.272;8.052;2023-03-21T17:08:40;14.77;;;5.10;;